sensor_id;sensor_type;location;lat;lon;timestamp;P1;durP1;ratioP1;P2;durP2;ratioP2
12703;SDS011;6416;52.182;7.650;2023-05-24T00:01:09;9.13;;;2.93;;
12703;SDS011;6416;52.182;7.650;2023-05-24T00:03:35;7.70;;;2.40;;
12703;SDS011;6416;52.182;7.650;2023-05-24T00:06:00;6.70;;;2.20;;
12703;SDS011;6416;52.182;7.650;2023-05-24T00:08:26;7.67;;;2.30;;
12703;SDS011;6416;52.182;7.650;2023-05-24T00:10:51;8.80;;;2.43;;
12703;SDS011;6416;52.182;7.650;2023-05-24T00:13:17;5.97;;;2.70;;
12703;SDS011;6416;52.182;7.650;2023-05-24T00:15:42;7.57;;;2.50;;
12703;SDS011;6416;52.182;7.650;2023-05-24T00:18:08;7.47;;;2.63;;
12703;SDS011;6416;52.182;7.650;2023-05-24T00:20:34;5.90;;;2.87;;
12703;SDS011;6416;52.182;7.650;2023-05-24T00:22:59;9.40;;;3.27;;
12703;SDS011;6416;52.182;7.650;2023-05-24T00:25:25;7.70;;;2.60;;
12703;SDS011;6416;52.182;7.650;2023-05-24T00:27:50;10.33;;;2.93;;
12703;SDS011;6416;52.182;7.650;2023-05-24T00:30:16;9.23;;;3.33;;
12703;SDS011;6416;52.182;7.650;2023-05-24T00:32:41;7.97;;;2.93;;
12703;SDS011;6416;52.182;7.650;2023-05-24T00:35:07;6.87;;;2.43;;
12703;SDS011;6416;52.182;7.650;2023-05-24T00:37:32;10.03;;;3.10;;
12703;SDS011;6416;52.182;7.650;2023-05-24T00:39:58;7.30;;;2.60;;
12703;SDS011;6416;52.182;7.650;2023-05-24T00:42:23;8.60;;;2.87;;
12703;SDS011;6416;52.182;7.650;2023-05-24T00:44:49;8.67;;;2.83;;
12703;SDS011;6416;52.182;7.650;2023-05-24T00:47:14;7.23;;;2.60;;
12703;SDS011;6416;52.182;7.650;2023-05-24T00:49:40;8.33;;;2.63;;
12703;SDS011;6416;52.182;7.650;2023-05-24T00:52:06;7.97;;;2.60;;
12703;SDS011;6416;52.182;7.650;2023-05-24T00:54:32;9.43;;;3.07;;
12703;SDS011;6416;52.182;7.650;2023-05-24T00:56:57;11.97;;;3.27;;
12703;SDS011;6416;52.182;7.650;2023-05-24T00:59:23;6.40;;;2.37;;
12703;SDS011;6416;52.182;7.650;2023-05-24T01:01:49;7.93;;;2.80;;
12703;SDS011;6416;52.182;7.650;2023-05-24T01:04:14;7.27;;;2.70;;
12703;SDS011;6416;52.182;7.650;2023-05-24T01:06:52;6.93;;;2.23;;
12703;SDS011;6416;52.182;7.650;2023-05-24T01:12:23;5.80;;;2.60;;
12703;SDS011;6416;52.182;7.650;2023-05-24T01:15:03;7.30;;;2.60;;
12703;SDS011;6416;52.182;7.650;2023-05-24T01:17:35;8.17;;;3.00;;
12703;SDS011;6416;52.182;7.650;2023-05-24T01:20:11;6.23;;;2.77;;
12703;SDS011;6416;52.182;7.650;2023-05-24T01:22:56;9.53;;;2.97;;
12703;SDS011;6416;52.182;7.650;2023-05-24T01:25:53;6.97;;;2.60;;
12703;SDS011;6416;52.182;7.650;2023-05-24T01:28:30;7.87;;;2.73;;
12703;SDS011;6416;52.182;7.650;2023-05-24T01:30:57;6.77;;;2.63;;
12703;SDS011;6416;52.182;7.650;2023-05-24T01:33:23;5.87;;;2.23;;
12703;SDS011;6416;52.182;7.650;2023-05-24T01:35:50;10.43;;;3.20;;
12703;SDS011;6416;52.182;7.650;2023-05-24T01:38:15;7.60;;;3.00;;
12703;SDS011;6416;52.182;7.650;2023-05-24T01:40:41;7.47;;;2.60;;
12703;SDS011;6416;52.182;7.650;2023-05-24T01:43:14;5.63;;;2.73;;
12703;SDS011;6416;52.182;7.650;2023-05-24T01:51:06;6.53;;;2.40;;
12703;SDS011;6416;52.182;7.650;2023-05-24T01:53:33;6.63;;;2.83;;
12703;SDS011;6416;52.182;7.650;2023-05-24T01:56:03;8.13;;;2.73;;
12703;SDS011;6416;52.182;7.650;2023-05-24T01:58:30;8.07;;;2.73;;
12703;SDS011;6416;52.182;7.650;2023-05-24T02:00:57;5.40;;;2.47;;
12703;SDS011;6416;52.182;7.650;2023-05-24T02:03:23;8.10;;;2.97;;
12703;SDS011;6416;52.182;7.650;2023-05-24T02:05:48;6.70;;;2.97;;
12703;SDS011;6416;52.182;7.650;2023-05-24T02:08:14;6.53;;;3.07;;
12703;SDS011;6416;52.182;7.650;2023-05-24T02:10:39;7.50;;;2.70;;
12703;SDS011;6416;52.182;7.650;2023-05-24T02:13:05;8.40;;;3.43;;
12703;SDS011;6416;52.182;7.650;2023-05-24T02:15:31;6.40;;;2.33;;
12703;SDS011;6416;52.182;7.650;2023-05-24T02:17:57;6.63;;;3.10;;
12703;SDS011;6416;52.182;7.650;2023-05-24T02:20:22;8.40;;;3.33;;
12703;SDS011;6416;52.182;7.650;2023-05-24T02:22:48;11.30;;;3.23;;
12703;SDS011;6416;52.182;7.650;2023-05-24T02:25:14;8.23;;;3.70;;
12703;SDS011;6416;52.182;7.650;2023-05-24T02:27:39;7.57;;;2.63;;
12703;SDS011;6416;52.182;7.650;2023-05-24T02:30:05;6.47;;;2.70;;
12703;SDS011;6416;52.182;7.650;2023-05-24T02:32:31;7.63;;;2.83;;
12703;SDS011;6416;52.182;7.650;2023-05-24T02:34:57;7.13;;;3.00;;
12703;SDS011;6416;52.182;7.650;2023-05-24T02:37:22;7.97;;;3.10;;
12703;SDS011;6416;52.182;7.650;2023-05-24T02:39:48;6.93;;;2.77;;
12703;SDS011;6416;52.182;7.650;2023-05-24T02:42:13;6.63;;;2.90;;
12703;SDS011;6416;52.182;7.650;2023-05-24T02:44:39;6.57;;;3.10;;
12703;SDS011;6416;52.182;7.650;2023-05-24T02:47:04;9.00;;;3.37;;
12703;SDS011;6416;52.182;7.650;2023-05-24T02:49:30;7.20;;;3.20;;
12703;SDS011;6416;52.182;7.650;2023-05-24T02:51:55;7.87;;;3.27;;
12703;SDS011;6416;52.182;7.650;2023-05-24T02:54:21;7.47;;;3.30;;
12703;SDS011;6416;52.182;7.650;2023-05-24T02:56:46;6.93;;;3.20;;
12703;SDS011;6416;52.182;7.650;2023-05-24T02:59:12;7.53;;;3.40;;
12703;SDS011;6416;52.182;7.650;2023-05-24T03:01:37;8.67;;;3.40;;
12703;SDS011;6416;52.182;7.650;2023-05-24T03:04:03;7.47;;;3.20;;
12703;SDS011;6416;52.182;7.650;2023-05-24T03:06:28;9.63;;;3.23;;
12703;SDS011;6416;52.182;7.650;2023-05-24T03:08:54;5.63;;;2.70;;
12703;SDS011;6416;52.182;7.650;2023-05-24T03:11:19;8.73;;;3.20;;
12703;SDS011;6416;52.182;7.650;2023-05-24T03:13:45;7.23;;;3.63;;
12703;SDS011;6416;52.182;7.650;2023-05-24T03:16:10;8.40;;;3.60;;
12703;SDS011;6416;52.182;7.650;2023-05-24T03:18:35;9.13;;;3.10;;
12703;SDS011;6416;52.182;7.650;2023-05-24T03:21:01;9.67;;;3.20;;
12703;SDS011;6416;52.182;7.650;2023-05-24T03:23:26;8.20;;;3.37;;
12703;SDS011;6416;52.182;7.650;2023-05-24T03:25:52;7.40;;;3.30;;
12703;SDS011;6416;52.182;7.650;2023-05-24T03:28:17;10.70;;;3.53;;
12703;SDS011;6416;52.182;7.650;2023-05-24T03:30:43;10.80;;;3.57;;
12703;SDS011;6416;52.182;7.650;2023-05-24T03:33:08;9.60;;;4.10;;
12703;SDS011;6416;52.182;7.650;2023-05-24T03:35:34;9.50;;;3.33;;
12703;SDS011;6416;52.182;7.650;2023-05-24T03:37:59;7.90;;;3.33;;
12703;SDS011;6416;52.182;7.650;2023-05-24T03:40:25;8.83;;;3.20;;
12703;SDS011;6416;52.182;7.650;2023-05-24T03:42:50;16.27;;;3.77;;
12703;SDS011;6416;52.182;7.650;2023-05-24T03:45:16;10.43;;;3.90;;
12703;SDS011;6416;52.182;7.650;2023-05-24T03:47:41;7.10;;;3.37;;
12703;SDS011;6416;52.182;7.650;2023-05-24T03:50:07;7.20;;;3.20;;
12703;SDS011;6416;52.182;7.650;2023-05-24T03:52:33;8.20;;;3.27;;
12703;SDS011;6416;52.182;7.650;2023-05-24T03:54:58;7.10;;;3.30;;
12703;SDS011;6416;52.182;7.650;2023-05-24T03:57:24;9.27;;;3.90;;
12703;SDS011;6416;52.182;7.650;2023-05-24T03:59:49;6.53;;;3.57;;
12703;SDS011;6416;52.182;7.650;2023-05-24T04:02:15;9.77;;;3.60;;
12703;SDS011;6416;52.182;7.650;2023-05-24T04:04:40;11.50;;;3.80;;
12703;SDS011;6416;52.182;7.650;2023-05-24T04:07:06;8.30;;;3.23;;
12703;SDS011;6416;52.182;7.650;2023-05-24T04:09:31;6.83;;;3.20;;
12703;SDS011;6416;52.182;7.650;2023-05-24T04:11:57;8.13;;;3.43;;
12703;SDS011;6416;52.182;7.650;2023-05-24T04:14:22;9.23;;;3.20;;
12703;SDS011;6416;52.182;7.650;2023-05-24T04:16:48;8.63;;;4.17;;
12703;SDS011;6416;52.182;7.650;2023-05-24T04:19:13;10.87;;;3.80;;
12703;SDS011;6416;52.182;7.650;2023-05-24T04:21:38;7.20;;;2.93;;
12703;SDS011;6416;52.182;7.650;2023-05-24T04:26:32;10.90;;;3.60;;
12703;SDS011;6416;52.182;7.650;2023-05-24T04:28:58;8.43;;;3.80;;
12703;SDS011;6416;52.182;7.650;2023-05-24T04:31:24;8.73;;;3.37;;
12703;SDS011;6416;52.182;7.650;2023-05-24T04:33:49;9.37;;;4.10;;
12703;SDS011;6416;52.182;7.650;2023-05-24T04:36:15;8.70;;;3.67;;
12703;SDS011;6416;52.182;7.650;2023-05-24T04:38:40;10.10;;;3.80;;
12703;SDS011;6416;52.182;7.650;2023-05-24T04:41:06;9.43;;;4.00;;
12703;SDS011;6416;52.182;7.650;2023-05-24T04:43:32;7.87;;;3.50;;
12703;SDS011;6416;52.182;7.650;2023-05-24T04:45:57;10.87;;;3.77;;
12703;SDS011;6416;52.182;7.650;2023-05-24T04:48:23;10.07;;;3.63;;
12703;SDS011;6416;52.182;7.650;2023-05-24T04:50:52;6.80;;;3.27;;
12703;SDS011;6416;52.182;7.650;2023-05-24T04:53:18;7.67;;;3.23;;
12703;SDS011;6416;52.182;7.650;2023-05-24T04:55:45;6.50;;;3.33;;
12703;SDS011;6416;52.182;7.650;2023-05-24T04:58:11;8.40;;;3.47;;
12703;SDS011;6416;52.182;7.650;2023-05-24T05:00:37;9.60;;;3.50;;
12703;SDS011;6416;52.182;7.650;2023-05-24T05:03:02;8.33;;;3.63;;
12703;SDS011;6416;52.182;7.650;2023-05-24T05:05:28;10.87;;;3.90;;
12703;SDS011;6416;52.182;7.650;2023-05-24T05:07:53;6.40;;;3.33;;
12703;SDS011;6416;52.182;7.650;2023-05-24T05:10:19;9.70;;;3.60;;
12703;SDS011;6416;52.182;7.650;2023-05-24T05:12:44;8.93;;;3.50;;
12703;SDS011;6416;52.182;7.650;2023-05-24T05:15:10;11.63;;;3.83;;
12703;SDS011;6416;52.182;7.650;2023-05-24T05:17:35;11.33;;;3.30;;
12703;SDS011;6416;52.182;7.650;2023-05-24T05:20:01;11.27;;;3.37;;
12703;SDS011;6416;52.182;7.650;2023-05-24T05:22:28;7.23;;;3.20;;
12703;SDS011;6416;52.182;7.650;2023-05-24T05:24:53;12.43;;;3.40;;
12703;SDS011;6416;52.182;7.650;2023-05-24T05:27:18;10.03;;;3.73;;
12703;SDS011;6416;52.182;7.650;2023-05-24T05:29:44;10.17;;;3.63;;
12703;SDS011;6416;52.182;7.650;2023-05-24T05:32:09;8.13;;;3.40;;
12703;SDS011;6416;52.182;7.650;2023-05-24T05:34:35;8.93;;;3.70;;
12703;SDS011;6416;52.182;7.650;2023-05-24T05:37:00;7.40;;;3.27;;
12703;SDS011;6416;52.182;7.650;2023-05-24T05:39:26;10.40;;;3.80;;
12703;SDS011;6416;52.182;7.650;2023-05-24T05:41:51;8.33;;;3.93;;
12703;SDS011;6416;52.182;7.650;2023-05-24T05:44:17;7.17;;;3.40;;
12703;SDS011;6416;52.182;7.650;2023-05-24T05:46:42;9.10;;;3.53;;
12703;SDS011;6416;52.182;7.650;2023-05-24T05:49:08;7.93;;;3.37;;
12703;SDS011;6416;52.182;7.650;2023-05-24T05:51:33;11.30;;;3.50;;
12703;SDS011;6416;52.182;7.650;2023-05-24T05:53:59;10.10;;;3.67;;
12703;SDS011;6416;52.182;7.650;2023-05-24T05:56:24;8.77;;;3.50;;
12703;SDS011;6416;52.182;7.650;2023-05-24T05:58:50;8.07;;;3.17;;
12703;SDS011;6416;52.182;7.650;2023-05-24T06:01:15;9.83;;;3.10;;
12703;SDS011;6416;52.182;7.650;2023-05-24T06:03:41;10.37;;;3.80;;
12703;SDS011;6416;52.182;7.650;2023-05-24T06:06:06;9.03;;;3.67;;
12703;SDS011;6416;52.182;7.650;2023-05-24T06:08:32;10.37;;;3.77;;
12703;SDS011;6416;52.182;7.650;2023-05-24T06:10:57;8.27;;;3.20;;
12703;SDS011;6416;52.182;7.650;2023-05-24T06:13:22;8.33;;;3.20;;
12703;SDS011;6416;52.182;7.650;2023-05-24T06:15:48;12.97;;;3.80;;
12703;SDS011;6416;52.182;7.650;2023-05-24T06:18:13;9.93;;;3.40;;
12703;SDS011;6416;52.182;7.650;2023-05-24T06:20:39;9.53;;;3.33;;
12703;SDS011;6416;52.182;7.650;2023-05-24T06:23:04;8.20;;;3.53;;
12703;SDS011;6416;52.182;7.650;2023-05-24T06:25:30;10.40;;;3.53;;
12703;SDS011;6416;52.182;7.650;2023-05-24T06:27:55;9.33;;;3.50;;
12703;SDS011;6416;52.182;7.650;2023-05-24T06:30:21;9.93;;;3.57;;
12703;SDS011;6416;52.182;7.650;2023-05-24T06:32:46;11.30;;;3.70;;
12703;SDS011;6416;52.182;7.650;2023-05-24T06:35:12;8.63;;;3.33;;
12703;SDS011;6416;52.182;7.650;2023-05-24T06:37:37;8.50;;;3.37;;
12703;SDS011;6416;52.182;7.650;2023-05-24T06:40:03;10.77;;;3.50;;
12703;SDS011;6416;52.182;7.650;2023-05-24T06:42:30;8.77;;;3.03;;
12703;SDS011;6416;52.182;7.650;2023-05-24T06:44:56;7.97;;;3.60;;
12703;SDS011;6416;52.182;7.650;2023-05-24T06:47:21;6.93;;;3.07;;
12703;SDS011;6416;52.182;7.650;2023-05-24T06:49:47;10.00;;;3.23;;
12703;SDS011;6416;52.182;7.650;2023-05-24T06:52:12;7.00;;;3.10;;
12703;SDS011;6416;52.182;7.650;2023-05-24T06:54:37;6.23;;;2.83;;
12703;SDS011;6416;52.182;7.650;2023-05-24T06:57:03;6.70;;;2.70;;
12703;SDS011;6416;52.182;7.650;2023-05-24T06:59:29;10.15;;;3.90;;
12703;SDS011;6416;52.182;7.650;2023-05-24T07:01:54;9.95;;;3.42;;
12703;SDS011;6416;52.182;7.650;2023-05-24T07:04:20;9.35;;;3.30;;
12703;SDS011;6416;52.182;7.650;2023-05-24T07:06:45;9.18;;;3.25;;
12703;SDS011;6416;52.182;7.650;2023-05-24T07:09:10;7.30;;;3.58;;
12703;SDS011;6416;52.182;7.650;2023-05-24T07:11:36;7.80;;;3.38;;
12703;SDS011;6416;52.182;7.650;2023-05-24T07:14:01;9.73;;;3.20;;
12703;SDS011;6416;52.182;7.650;2023-05-24T07:16:27;9.23;;;3.83;;
12703;SDS011;6416;52.182;7.650;2023-05-24T07:18:53;8.10;;;2.95;;
12703;SDS011;6416;52.182;7.650;2023-05-24T07:21:19;7.88;;;3.20;;
12703;SDS011;6416;52.182;7.650;2023-05-24T07:23:44;6.60;;;2.42;;
12703;SDS011;6416;52.182;7.650;2023-05-24T07:26:10;10.23;;;3.13;;
12703;SDS011;6416;52.182;7.650;2023-05-24T07:28:35;8.23;;;3.50;;
12703;SDS011;6416;52.182;7.650;2023-05-24T07:31:01;9.02;;;3.05;;
12703;SDS011;6416;52.182;7.650;2023-05-24T07:33:26;9.77;;;3.20;;
12703;SDS011;6416;52.182;7.650;2023-05-24T07:35:52;8.75;;;3.20;;
12703;SDS011;6416;52.182;7.650;2023-05-24T07:38:17;8.88;;;4.13;;
12703;SDS011;6416;52.182;7.650;2023-05-24T07:40:43;7.03;;;3.03;;
12703;SDS011;6416;52.182;7.650;2023-05-24T07:43:08;10.52;;;3.80;;
12703;SDS011;6416;52.182;7.650;2023-05-24T07:45:34;7.38;;;3.05;;
12703;SDS011;6416;52.182;7.650;2023-05-24T07:47:59;7.30;;;3.10;;
12703;SDS011;6416;52.182;7.650;2023-05-24T07:50:25;5.78;;;2.80;;
12703;SDS011;6416;52.182;7.650;2023-05-24T07:52:50;6.47;;;3.10;;
12703;SDS011;6416;52.182;7.650;2023-05-24T07:55:16;6.38;;;2.92;;
12703;SDS011;6416;52.182;7.650;2023-05-24T07:57:41;7.55;;;3.38;;
12703;SDS011;6416;52.182;7.650;2023-05-24T08:00:07;7.78;;;3.17;;
12703;SDS011;6416;52.182;7.650;2023-05-24T08:02:33;6.85;;;2.80;;
12703;SDS011;6416;52.182;7.650;2023-05-24T08:04:58;8.48;;;3.17;;
12703;SDS011;6416;52.182;7.650;2023-05-24T08:07:24;5.70;;;3.10;;
12703;SDS011;6416;52.182;7.650;2023-05-24T08:09:49;6.30;;;2.95;;
12703;SDS011;6416;52.182;7.650;2023-05-24T08:12:15;8.60;;;3.30;;
12703;SDS011;6416;52.182;7.650;2023-05-24T08:14:40;6.47;;;3.35;;
12703;SDS011;6416;52.182;7.650;2023-05-24T08:17:06;7.78;;;2.95;;
12703;SDS011;6416;52.182;7.650;2023-05-24T08:19:31;7.47;;;2.88;;
12703;SDS011;6416;52.182;7.650;2023-05-24T08:21:56;8.65;;;3.00;;
12703;SDS011;6416;52.182;7.650;2023-05-24T08:24:22;9.75;;;3.08;;
12703;SDS011;6416;52.182;7.650;2023-05-24T08:26:47;8.80;;;3.20;;
12703;SDS011;6416;52.182;7.650;2023-05-24T08:29:13;6.25;;;2.90;;
12703;SDS011;6416;52.182;7.650;2023-05-24T08:31:38;9.40;;;3.92;;
12703;SDS011;6416;52.182;7.650;2023-05-24T08:34:04;5.55;;;3.10;;
12703;SDS011;6416;52.182;7.650;2023-05-24T08:36:29;8.80;;;3.53;;
12703;SDS011;6416;52.182;7.650;2023-05-24T08:38:55;8.13;;;3.42;;
12703;SDS011;6416;52.182;7.650;2023-05-24T08:41:20;8.38;;;3.13;;
12703;SDS011;6416;52.182;7.650;2023-05-24T08:43:46;7.43;;;3.30;;
12703;SDS011;6416;52.182;7.650;2023-05-24T08:46:12;7.72;;;3.25;;
12703;SDS011;6416;52.182;7.650;2023-05-24T08:48:48;7.53;;;3.35;;
12703;SDS011;6416;52.182;7.650;2023-05-24T08:51:15;8.52;;;3.03;;
12703;SDS011;6416;52.182;7.650;2023-05-24T08:53:41;6.18;;;2.63;;
12703;SDS011;6416;52.182;7.650;2023-05-24T08:56:08;8.63;;;3.45;;
12703;SDS011;6416;52.182;7.650;2023-05-24T08:58:35;6.85;;;3.13;;
12703;SDS011;6416;52.182;7.650;2023-05-24T09:01:02;8.00;;;3.35;;
12703;SDS011;6416;52.182;7.650;2023-05-24T09:03:29;9.57;;;3.30;;
12703;SDS011;6416;52.182;7.650;2023-05-24T09:05:56;5.25;;;2.33;;
12703;SDS011;6416;52.182;7.650;2023-05-24T09:08:22;6.45;;;2.88;;
12703;SDS011;6416;52.182;7.650;2023-05-24T09:10:48;8.73;;;3.60;;
12703;SDS011;6416;52.182;7.650;2023-05-24T09:13:14;6.03;;;2.60;;
12703;SDS011;6416;52.182;7.650;2023-05-24T09:15:41;9.45;;;3.17;;
12703;SDS011;6416;52.182;7.650;2023-05-24T09:18:06;8.38;;;3.25;;
12703;SDS011;6416;52.182;7.650;2023-05-24T09:20:32;6.50;;;2.85;;
12703;SDS011;6416;52.182;7.650;2023-05-24T09:22:57;5.78;;;2.72;;
12703;SDS011;6416;52.182;7.650;2023-05-24T09:25:23;5.93;;;2.60;;
12703;SDS011;6416;52.182;7.650;2023-05-24T09:27:52;6.82;;;3.20;;
12703;SDS011;6416;52.182;7.650;2023-05-24T09:30:18;5.07;;;2.70;;
12703;SDS011;6416;52.182;7.650;2023-05-24T09:32:56;5.97;;;2.55;;
12703;SDS011;6416;52.182;7.650;2023-05-24T09:35:23;6.50;;;3.22;;
12703;SDS011;6416;52.182;7.650;2023-05-24T09:37:58;9.50;;;3.80;;
12703;SDS011;6416;52.182;7.650;2023-05-24T09:40:24;7.40;;;2.88;;
12703;SDS011;6416;52.182;7.650;2023-05-24T09:43:07;6.88;;;2.90;;
12703;SDS011;6416;52.182;7.650;2023-05-24T09:45:45;7.97;;;2.80;;
12703;SDS011;6416;52.182;7.650;2023-05-24T09:48:12;6.15;;;2.80;;
12703;SDS011;6416;52.182;7.650;2023-05-24T09:50:38;6.22;;;3.00;;
12703;SDS011;6416;52.182;7.650;2023-05-24T09:53:04;7.68;;;3.15;;
12703;SDS011;6416;52.182;7.650;2023-05-24T09:55:29;5.70;;;2.85;;
12703;SDS011;6416;52.182;7.650;2023-05-24T09:58:01;7.22;;;3.30;;
12703;SDS011;6416;52.182;7.650;2023-05-24T10:00:37;6.13;;;2.95;;
12703;SDS011;6416;52.182;7.650;2023-05-24T10:03:04;7.35;;;2.88;;
12703;SDS011;6416;52.182;7.650;2023-05-24T10:05:33;4.72;;;2.58;;
12703;SDS011;6416;52.182;7.650;2023-05-24T10:08:00;6.07;;;2.67;;
12703;SDS011;6416;52.182;7.650;2023-05-24T10:10:26;4.95;;;2.88;;
12703;SDS011;6416;52.182;7.650;2023-05-24T10:12:53;5.25;;;2.30;;
12703;SDS011;6416;52.182;7.650;2023-05-24T10:15:20;5.30;;;2.42;;
12703;SDS011;6416;52.182;7.650;2023-05-24T10:17:46;9.25;;;3.10;;
12703;SDS011;6416;52.182;7.650;2023-05-24T10:20:11;5.78;;;2.58;;
12703;SDS011;6416;52.182;7.650;2023-05-24T10:22:39;6.20;;;2.85;;
12703;SDS011;6416;52.182;7.650;2023-05-24T10:25:07;5.63;;;2.70;;
12703;SDS011;6416;52.182;7.650;2023-05-24T10:27:37;5.75;;;2.53;;
12703;SDS011;6416;52.182;7.650;2023-05-24T10:32:30;7.57;;;2.97;;
12703;SDS011;6416;52.182;7.650;2023-05-24T10:34:59;6.20;;;3.17;;
12703;SDS011;6416;52.182;7.650;2023-05-24T10:37:26;7.03;;;2.83;;
12703;SDS011;6416;52.182;7.650;2023-05-24T10:39:52;6.30;;;2.50;;
12703;SDS011;6416;52.182;7.650;2023-05-24T10:42:17;6.05;;;2.53;;
12703;SDS011;6416;52.182;7.650;2023-05-24T10:44:43;7.13;;;2.60;;
12703;SDS011;6416;52.182;7.650;2023-05-24T10:47:12;7.07;;;2.90;;
12703;SDS011;6416;52.182;7.650;2023-05-24T10:49:48;5.32;;;2.58;;
12703;SDS011;6416;52.182;7.650;2023-05-24T10:52:15;4.10;;;2.47;;
12703;SDS011;6416;52.182;7.650;2023-05-24T10:54:57;5.05;;;2.60;;
12703;SDS011;6416;52.182;7.650;2023-05-24T10:57:32;5.70;;;2.78;;
12703;SDS011;6416;52.182;7.650;2023-05-24T11:02:48;6.47;;;2.72;;
12703;SDS011;6416;52.182;7.650;2023-05-24T11:05:14;9.43;;;3.65;;
12703;SDS011;6416;52.182;7.650;2023-05-24T11:07:40;5.95;;;2.85;;
12703;SDS011;6416;52.182;7.650;2023-05-24T11:10:08;7.82;;;2.90;;
12703;SDS011;6416;52.182;7.650;2023-05-24T11:12:40;5.88;;;2.88;;
12703;SDS011;6416;52.182;7.650;2023-05-24T11:15:07;7.13;;;2.63;;
12703;SDS011;6416;52.182;7.650;2023-05-24T11:17:34;6.43;;;2.90;;
12703;SDS011;6416;52.182;7.650;2023-05-24T11:20:30;7.22;;;3.03;;
12703;SDS011;6416;52.182;7.650;2023-05-24T11:22:57;6.28;;;2.80;;
12703;SDS011;6416;52.182;7.650;2023-05-24T11:25:22;6.85;;;2.88;;
12703;SDS011;6416;52.182;7.650;2023-05-24T11:27:48;5.82;;;2.63;;
12703;SDS011;6416;52.182;7.650;2023-05-24T11:30:14;7.60;;;2.70;;
12703;SDS011;6416;52.182;7.650;2023-05-24T11:32:39;6.03;;;2.75;;
12703;SDS011;6416;52.182;7.650;2023-05-24T11:35:05;7.10;;;3.42;;
12703;SDS011;6416;52.182;7.650;2023-05-24T11:37:31;5.13;;;2.50;;
12703;SDS011;6416;52.182;7.650;2023-05-24T11:39:56;6.10;;;2.55;;
12703;SDS011;6416;52.182;7.650;2023-05-24T11:42:22;4.82;;;2.55;;
12703;SDS011;6416;52.182;7.650;2023-05-24T11:44:47;4.95;;;2.33;;
12703;SDS011;6416;52.182;7.650;2023-05-24T11:47:14;5.00;;;2.17;;
12703;SDS011;6416;52.182;7.650;2023-05-24T11:49:39;4.55;;;2.17;;
12703;SDS011;6416;52.182;7.650;2023-05-24T11:52:05;5.32;;;2.42;;
12703;SDS011;6416;52.182;7.650;2023-05-24T11:54:30;4.47;;;2.55;;
12703;SDS011;6416;52.182;7.650;2023-05-24T11:56:56;5.30;;;2.28;;
12703;SDS011;6416;52.182;7.650;2023-05-24T11:59:22;6.10;;;2.70;;
12703;SDS011;6416;52.182;7.650;2023-05-24T12:01:50;5.05;;;2.05;;
12703;SDS011;6416;52.182;7.650;2023-05-24T12:04:27;8.52;;;2.83;;
12703;SDS011;6416;52.182;7.650;2023-05-24T12:06:54;5.40;;;2.88;;
12703;SDS011;6416;52.182;7.650;2023-05-24T12:09:20;6.85;;;2.42;;
12703;SDS011;6416;52.182;7.650;2023-05-24T12:11:46;4.95;;;2.05;;
12703;SDS011;6416;52.182;7.650;2023-05-24T12:14:12;8.75;;;2.75;;
12703;SDS011;6416;52.182;7.650;2023-05-24T12:16:43;5.85;;;2.60;;
12703;SDS011;6416;52.182;7.650;2023-05-24T12:19:19;4.72;;;2.38;;
12703;SDS011;6416;52.182;7.650;2023-05-24T12:21:47;5.93;;;2.50;;
12703;SDS011;6416;52.182;7.650;2023-05-24T12:24:14;6.60;;;2.40;;
12703;SDS011;6416;52.182;7.650;2023-05-24T12:26:45;5.35;;;2.88;;
12703;SDS011;6416;52.182;7.650;2023-05-24T12:29:12;6.05;;;2.75;;
12703;SDS011;6416;52.182;7.650;2023-05-24T12:31:39;6.00;;;2.20;;
12703;SDS011;6416;52.182;7.650;2023-05-24T12:34:15;5.20;;;2.47;;
12703;SDS011;6416;52.182;7.650;2023-05-24T12:36:42;7.07;;;2.33;;
12703;SDS011;6416;52.182;7.650;2023-05-24T12:39:20;7.13;;;2.65;;
12703;SDS011;6416;52.182;7.650;2023-05-24T12:41:53;4.97;;;2.40;;
12703;SDS011;6416;52.182;7.650;2023-05-24T12:44:23;4.22;;;2.45;;
12703;SDS011;6416;52.182;7.650;2023-05-24T12:46:49;3.78;;;1.90;;
12703;SDS011;6416;52.182;7.650;2023-05-24T12:49:16;9.82;;;2.88;;
12703;SDS011;6416;52.182;7.650;2023-05-24T12:51:42;5.60;;;2.30;;
12703;SDS011;6416;52.182;7.650;2023-05-24T12:54:07;4.18;;;2.42;;
12703;SDS011;6416;52.182;7.650;2023-05-24T12:56:33;6.03;;;2.08;;
12703;SDS011;6416;52.182;7.650;2023-05-24T12:58:58;5.18;;;2.58;;
12703;SDS011;6416;52.182;7.650;2023-05-24T13:01:24;5.03;;;2.42;;
12703;SDS011;6416;52.182;7.650;2023-05-24T13:03:49;4.13;;;2.10;;
12703;SDS011;6416;52.182;7.650;2023-05-24T13:06:14;4.72;;;2.38;;
12703;SDS011;6416;52.182;7.650;2023-05-24T13:08:40;5.20;;;2.20;;
12703;SDS011;6416;52.182;7.650;2023-05-24T13:11:05;5.63;;;2.55;;
12703;SDS011;6416;52.182;7.650;2023-05-24T13:13:31;4.20;;;2.20;;
12703;SDS011;6416;52.182;7.650;2023-05-24T13:15:56;7.97;;;2.70;;
12703;SDS011;6416;52.182;7.650;2023-05-24T13:18:22;5.15;;;2.45;;
12703;SDS011;6416;52.182;7.650;2023-05-24T13:20:48;4.20;;;2.05;;
12703;SDS011;6416;52.182;7.650;2023-05-24T13:23:13;6.72;;;2.58;;
12703;SDS011;6416;52.182;7.650;2023-05-24T13:25:38;6.78;;;2.15;;
12703;SDS011;6416;52.182;7.650;2023-05-24T13:28:04;5.03;;;2.42;;
12703;SDS011;6416;52.182;7.650;2023-05-24T13:30:29;6.30;;;2.35;;
12703;SDS011;6416;52.182;7.650;2023-05-24T13:32:55;4.65;;;2.30;;
12703;SDS011;6416;52.182;7.650;2023-05-24T13:35:21;3.65;;;2.05;;
12703;SDS011;6416;52.182;7.650;2023-05-24T13:37:47;6.90;;;2.63;;
12703;SDS011;6416;52.182;7.650;2023-05-24T13:40:12;4.65;;;2.60;;
12703;SDS011;6416;52.182;7.650;2023-05-24T13:42:38;5.90;;;2.33;;
12703;SDS011;6416;52.182;7.650;2023-05-24T13:45:03;4.20;;;2.13;;
12703;SDS011;6416;52.182;7.650;2023-05-24T13:47:32;5.22;;;2.08;;
12703;SDS011;6416;52.182;7.650;2023-05-24T13:49:57;3.10;;;2.00;;
12703;SDS011;6416;52.182;7.650;2023-05-24T13:52:23;3.97;;;2.15;;
12703;SDS011;6416;52.182;7.650;2023-05-24T13:54:48;3.70;;;2.17;;
12703;SDS011;6416;52.182;7.650;2023-05-24T13:57:14;4.15;;;2.10;;
12703;SDS011;6416;52.182;7.650;2023-05-24T13:59:40;3.45;;;1.95;;
12703;SDS011;6416;52.182;7.650;2023-05-24T14:02:06;3.78;;;1.77;;
12703;SDS011;6416;52.182;7.650;2023-05-24T14:04:31;6.13;;;2.65;;
12703;SDS011;6416;52.182;7.650;2023-05-24T14:06:57;3.85;;;2.10;;
12703;SDS011;6416;52.182;7.650;2023-05-24T14:09:22;4.47;;;2.15;;
12703;SDS011;6416;52.182;7.650;2023-05-24T14:11:48;5.13;;;2.45;;
12703;SDS011;6416;52.182;7.650;2023-05-24T14:14:13;5.78;;;2.20;;
12703;SDS011;6416;52.182;7.650;2023-05-24T14:16:39;4.75;;;2.67;;
12703;SDS011;6416;52.182;7.650;2023-05-24T14:19:04;5.15;;;2.50;;
12703;SDS011;6416;52.182;7.650;2023-05-24T14:21:30;4.28;;;2.53;;
12703;SDS011;6416;52.182;7.650;2023-05-24T14:23:55;3.50;;;1.98;;
12703;SDS011;6416;52.182;7.650;2023-05-24T14:26:21;6.47;;;2.55;;
12703;SDS011;6416;52.182;7.650;2023-05-24T14:28:46;4.88;;;2.20;;
12703;SDS011;6416;52.182;7.650;2023-05-24T14:31:12;4.47;;;2.53;;
12703;SDS011;6416;52.182;7.650;2023-05-24T14:33:37;3.92;;;1.95;;
12703;SDS011;6416;52.182;7.650;2023-05-24T14:36:03;4.15;;;2.35;;
12703;SDS011;6416;52.182;7.650;2023-05-24T14:38:28;4.75;;;2.53;;
12703;SDS011;6416;52.182;7.650;2023-05-24T14:40:54;3.50;;;1.95;;
12703;SDS011;6416;52.182;7.650;2023-05-24T14:43:19;6.32;;;2.60;;
12703;SDS011;6416;52.182;7.650;2023-05-24T14:45:45;4.05;;;2.22;;
12703;SDS011;6416;52.182;7.650;2023-05-24T14:48:10;3.83;;;2.10;;
12703;SDS011;6416;52.182;7.650;2023-05-24T14:50:36;2.90;;;1.92;;
12703;SDS011;6416;52.182;7.650;2023-05-24T14:53:02;4.55;;;2.28;;
12703;SDS011;6416;52.182;7.650;2023-05-24T14:55:27;3.55;;;1.83;;
12703;SDS011;6416;52.182;7.650;2023-05-24T14:57:53;6.10;;;2.38;;
12703;SDS011;6416;52.182;7.650;2023-05-24T15:00:19;4.50;;;2.20;;
12703;SDS011;6416;52.182;7.650;2023-05-24T15:02:44;3.72;;;1.80;;
12703;SDS011;6416;52.182;7.650;2023-05-24T15:05:10;3.75;;;2.33;;
12703;SDS011;6416;52.182;7.650;2023-05-24T15:07:38;3.50;;;1.95;;
12703;SDS011;6416;52.182;7.650;2023-05-24T15:10:04;4.07;;;1.92;;
12703;SDS011;6416;52.182;7.650;2023-05-24T15:12:29;5.15;;;2.30;;